createdAt,value
2019-01-13T00:04:24.180Z,97872.05
2019-01-13T00:06:54.630Z,97867.98
2019-01-13T00:09:24.724Z,97860.44
2019-01-13T00:11:57.874Z,97864.67
2019-01-13T00:14:28.098Z,97866.56
2019-01-13T00:16:58.108Z,97863.89
2019-01-13T00:19:28.482Z,97866.31
2019-01-13T00:21:58.965Z,97863.34
2019-01-13T00:24:29.144Z,97854.40
2019-01-13T00:26:59.542Z,97858.83
2019-01-13T00:29:29.619Z,97853.68
2019-01-13T00:32:00.186Z,97850.37
2019-01-13T00:34:30.078Z,97844.16
2019-01-13T00:36:59.996Z,97844.00
2019-01-13T00:39:29.996Z,97845.13
2019-01-13T00:42:00.396Z,97839.16
2019-01-13T00:44:30.321Z,97842.46
2019-01-13T00:47:00.503Z,97846.42
2019-01-13T00:49:31.244Z,97835.73
2019-01-13T00:52:01.402Z,97839.95
2019-01-13T00:54:32.177Z,97842.21
2019-01-13T00:57:02.575Z,97844.28
2019-01-13T00:59:32.797Z,97850.28
2019-01-13T01:02:04.721Z,97854.43
2019-01-13T01:04:34.948Z,97860.43
2019-01-13T01:07:05.102Z,97871.27
2019-01-13T01:09:35.192Z,97862.72
2019-01-13T01:23:36.395Z,97858.44
2019-01-13T01:36:25.432Z,97857.63
2019-01-13T01:38:55.344Z,97864.11
2019-01-13T01:41:25.626Z,97869.03
2019-01-13T01:43:55.704Z,97880.16
2019-01-13T01:57:36.857Z,97892.53
2019-01-13T02:00:16.327Z,97895.98
2019-01-13T02:02:46.789Z,97894.70
2019-01-13T02:05:17.067Z,97892.13
2019-01-13T02:07:47.399Z,97883.70
2019-01-13T02:10:20.175Z,97898.50
2019-01-13T02:12:50.995Z,97893.06
2019-01-13T02:15:25.043Z,97899.88
2019-01-13T02:17:55.562Z,97914.88
2019-01-13T02:24:17.307Z,97906.89
2019-01-13T02:26:47.304Z,97902.86
2019-01-13T02:29:17.962Z,97899.97
2019-01-13T02:31:48.007Z,97899.34
2019-01-13T02:34:18.596Z,97900.16
2019-01-13T02:36:48.782Z,97889.45
2019-01-13T02:39:19.024Z,97879.23
2019-01-13T02:41:48.936Z,97884.27
2019-01-13T02:44:19.605Z,97882.69
2019-01-13T02:46:49.816Z,97870.19
2019-01-13T02:49:19.766Z,97873.52
2019-01-13T02:51:50.256Z,97874.04
2019-01-13T02:54:20.378Z,97875.41
2019-01-13T02:56:50.731Z,97873.39
2019-01-13T02:59:20.882Z,97874.20
2019-01-13T03:01:51.568Z,97869.75
2019-01-13T03:04:21.509Z,97866.53
2019-01-13T03:10:25.988Z,97857.03
2019-01-13T03:12:56.348Z,97854.24
2019-01-13T03:15:27.700Z,97846.07
2019-01-13T03:17:57.702Z,97848.17
2019-01-13T03:20:28.087Z,97845.55
2019-01-13T03:22:59.114Z,97848.95
2019-01-13T03:25:29.319Z,97850.72
2019-01-13T03:27:59.502Z,97858.35
2019-01-13T03:30:29.600Z,97854.95
2019-01-13T03:32:59.976Z,97857.94
2019-01-13T03:35:30.612Z,97855.75
2019-01-13T03:38:00.505Z,97854.97
2019-01-13T03:40:30.386Z,97852.30
2019-01-13T03:43:00.916Z,97847.04
2019-01-13T03:45:31.189Z,97847.95
2019-01-13T03:48:01.466Z,97845.17
2019-01-13T03:50:31.632Z,97854.36
2019-01-13T03:53:01.870Z,97860.29
2019-01-13T03:55:31.853Z,97847.23
2019-01-13T03:58:02.198Z,97849.39
2019-01-13T04:00:32.345Z,97842.33
2019-01-13T04:03:02.269Z,97841.50
2019-01-13T04:05:32.165Z,97832.36
2019-01-13T04:08:02.077Z,97822.38
2019-01-13T04:10:32.259Z,97827.71
2019-01-13T04:13:03.020Z,97830.22
2019-01-13T04:16:00.746Z,97828.60
2019-01-13T04:18:31.604Z,97828.25
2019-01-13T04:21:01.663Z,97828.59
2019-01-13T04:23:31.963Z,97818.73
2019-01-13T04:26:02.142Z,97803.02
2019-01-13T04:28:33.291Z,97789.52
2019-01-13T04:31:03.407Z,97796.90
2019-01-13T04:33:33.426Z,97796.29
2019-01-13T04:36:04.141Z,97785.87
2019-01-13T04:38:34.560Z,97779.02
2019-01-13T04:41:05.399Z,97786.89
2019-01-13T04:43:35.546Z,97783.41
2019-01-13T04:46:05.604Z,97784.67
2019-01-13T04:48:35.513Z,97789.09
2019-01-13T04:51:06.537Z,97794.35
2019-01-13T04:53:37.434Z,97792.79
2019-01-13T05:00:01.440Z,97807.07
2019-01-13T05:02:31.849Z,97796.09
2019-01-13T05:05:01.892Z,97787.58
2019-01-13T05:11:03.431Z,97803.34
2019-01-13T05:13:33.339Z,97809.02
2019-01-13T05:30:21.046Z,97789.09
2019-01-13T05:32:51.454Z,97791.57
2019-01-13T05:35:21.890Z,97782.63
2019-01-13T05:37:51.791Z,97782.77
2019-01-13T05:40:22.642Z,97765.91
2019-01-13T05:42:52.900Z,97761.52
2019-01-13T05:45:23.429Z,97752.27
2019-01-13T05:47:53.342Z,97762.03
2019-01-13T05:50:23.564Z,97758.90
2019-01-13T05:52:54.852Z,97762.52
2019-01-13T05:55:25.226Z,97755.77
2019-01-13T05:57:55.137Z,97749.95
2019-01-13T06:00:28.202Z,97744.14
2019-01-13T06:02:58.583Z,97740.81
2019-01-13T06:05:28.522Z,97731.69
2019-01-13T06:07:58.492Z,97732.30
2019-01-13T06:10:28.620Z,97732.92
2019-01-13T06:12:58.678Z,97729.78
2019-01-13T06:15:28.961Z,97726.94
2019-01-13T06:17:59.127Z,97721.92
2019-01-13T06:20:29.268Z,97725.70
2019-01-13T06:22:59.175Z,97719.69
2019-01-13T06:25:29.133Z,97716.21
2019-01-13T06:27:59.078Z,97722.98
2019-01-13T06:30:29.027Z,97725.03
2019-01-13T06:32:58.941Z,97722.95
2019-01-13T06:35:28.946Z,97727.21
2019-01-13T06:37:59.070Z,97717.92
2019-01-13T06:40:29.303Z,97718.42
2019-01-13T06:43:00.744Z,97714.34
2019-01-13T06:45:30.703Z,97718.11
2019-01-13T06:48:00.594Z,97709.16
2019-01-13T06:50:30.609Z,97705.94
2019-01-13T06:53:00.767Z,97706.78
2019-01-13T06:55:30.808Z,97697.66
2019-01-13T06:58:04.236Z,97693.69
2019-01-13T07:00:34.142Z,97693.45
2019-01-13T07:03:04.181Z,97697.16
2019-01-13T07:05:34.401Z,97691.17
2019-01-13T07:08:04.592Z,97691.47
2019-01-13T07:10:34.506Z,97682.19
2019-01-13T07:13:04.422Z,97679.23
2019-01-13T07:15:34.397Z,97678.32
2019-01-13T07:18:04.287Z,97679.78
2019-01-13T07:20:35.237Z,97676.78
2019-01-13T07:23:05.909Z,97682.16
2019-01-13T07:25:35.798Z,97686.89
2019-01-13T07:28:05.942Z,97689.09
2019-01-13T07:30:35.966Z,97684.67
2019-01-13T07:33:06.062Z,97677.79
2019-01-13T07:35:36.646Z,97663.45
2019-01-13T07:38:07.250Z,97660.48
2019-01-13T07:40:37.186Z,97668.50
2019-01-13T07:43:07.853Z,97664.22
2019-01-13T07:45:37.886Z,97653.81
2019-01-13T07:48:08.838Z,97647.52
2019-01-13T07:50:38.811Z,97656.19
2019-01-13T07:53:09.194Z,97657.61
2019-01-13T07:55:39.575Z,97656.71
2019-01-13T07:58:09.719Z,97654.17
2019-01-13T08:00:39.621Z,97644.71
2019-01-13T08:03:09.677Z,97648.17
2019-01-13T08:05:40.168Z,97631.98
2019-01-13T08:08:10.456Z,97634.34
2019-01-13T08:10:41.158Z,97634.80
2019-01-13T08:13:11.106Z,97636.09
2019-01-13T08:15:41.020Z,97632.77
2019-01-13T08:18:11.010Z,97634.67
2019-01-13T08:20:41.257Z,97633.43
2019-01-13T08:23:11.540Z,97628.36
2019-01-13T08:25:42.240Z,97631.98
2019-01-13T08:28:12.902Z,97645.20
2019-01-13T08:30:42.853Z,97632.93
2019-01-13T08:33:12.815Z,97631.84
2019-01-13T08:35:43.496Z,97637.81
2019-01-13T08:38:13.426Z,97637.02
2019-01-13T08:40:44.508Z,97634.20
2019-01-13T08:43:15.222Z,97630.76
2019-01-13T08:45:50.276Z,97634.84
2019-01-13T08:48:17.973Z,97626.81
2019-01-13T08:50:49.475Z,97625.86
2019-01-13T08:53:19.553Z,97628.56
2019-01-13T08:55:49.798Z,97636.73
2019-01-13T08:58:19.748Z,97635.63
2019-01-13T09:00:49.656Z,97625.22
2019-01-13T09:03:19.806Z,97630.44
2019-01-13T09:05:49.796Z,97627.76
2019-01-13T09:08:20.115Z,97634.38
2019-01-13T09:10:50.258Z,97636.28
2019-01-13T09:13:20.649Z,97625.86
2019-01-13T09:15:51.139Z,97623.04
2019-01-13T09:18:21.364Z,97620.05
2019-01-13T09:20:51.578Z,97626.18
2019-01-13T09:23:21.736Z,97622.73
2019-01-13T09:25:52.090Z,97620.52
2019-01-13T09:28:21.990Z,97626.19
2019-01-13T09:30:52.068Z,97624.91
2019-01-13T09:33:22.193Z,97627.44
2019-01-13T09:35:52.551Z,97617.05
2019-01-13T09:38:22.842Z,97627.30
2019-01-13T09:40:53.070Z,97628.08
2019-01-13T09:43:23.209Z,97626.48
2019-01-13T09:45:53.442Z,97623.34
2019-01-13T09:48:23.723Z,97612.65
2019-01-13T09:50:54.516Z,97609.80
2019-01-13T09:53:25.328Z,97615.80
2019-01-13T09:55:55.873Z,97609.79
2019-01-13T09:58:26.720Z,97611.38
2019-01-13T10:00:56.701Z,97618.47
2019-01-13T10:03:29.663Z,97606.98
2019-01-13T10:05:59.903Z,97608.22
2019-01-13T10:08:29.821Z,97602.88
2019-01-13T10:11:00.001Z,97603.80
2019-01-13T10:13:30.189Z,97594.36
2019-01-13T10:16:00.244Z,97576.58
2019-01-13T10:18:30.153Z,97571.86
2019-01-13T10:21:00.758Z,97569.80
2019-01-13T10:23:31.198Z,97576.09
2019-01-13T10:26:01.492Z,97564.76
2019-01-13T10:28:31.650Z,97558.14
2019-01-13T10:31:03.283Z,97554.69
2019-01-13T10:33:33.423Z,97545.39
2019-01-13T10:36:03.503Z,97532.62
2019-01-13T10:38:34.540Z,97524.28
2019-01-13T10:41:04.784Z,97525.08
2019-01-13T10:43:34.686Z,97522.87
2019-01-13T10:46:04.700Z,97505.73
2019-01-13T10:48:34.935Z,97503.36
2019-01-13T10:51:05.574Z,97508.71
2019-01-13T10:53:36.672Z,97503.66
2019-01-13T10:56:06.747Z,97504.94
2019-01-13T10:58:36.896Z,97496.27
2019-01-13T11:01:06.968Z,97481.64
2019-01-13T11:03:37.137Z,97476.45
2019-01-13T11:06:07.317Z,97466.55
2019-01-13T11:08:37.249Z,97458.98
2019-01-13T11:11:07.242Z,97460.25
2019-01-13T11:13:38.796Z,97456.14
2019-01-13T11:16:08.800Z,97453.64
2019-01-13T11:18:38.970Z,97444.48
2019-01-13T11:21:08.865Z,97431.91
2019-01-13T11:23:39.628Z,97432.53
2019-01-13T11:26:10.104Z,97424.04
2019-01-13T11:28:40.257Z,97410.96
2019-01-13T11:31:10.933Z,97395.53
2019-01-13T11:33:40.846Z,97390.98
2019-01-13T11:36:10.992Z,97380.55
2019-01-13T11:38:41.086Z,97374.26
2019-01-13T11:41:11.057Z,97374.88
2019-01-13T11:43:41.026Z,97363.58
2019-01-13T11:46:11.279Z,97353.63
2019-01-13T11:48:41.216Z,97335.54
2019-01-13T11:51:11.397Z,97337.73
2019-01-13T11:53:41.682Z,97330.78
2019-01-13T11:56:13.261Z,97328.26
2019-01-13T11:58:43.586Z,97312.81
2019-01-13T12:01:13.944Z,97319.44
2019-01-13T12:03:43.836Z,97302.91
2019-01-13T12:06:13.891Z,97299.73
2019-01-13T12:08:44.245Z,97302.37
2019-01-13T12:11:14.265Z,97300.33
2019-01-13T12:13:44.226Z,97296.06
2019-01-13T12:16:14.131Z,97284.39
2019-01-13T12:18:44.265Z,97273.05
2019-01-13T12:21:14.270Z,97271.60
2019-01-13T12:23:44.682Z,97273.64
2019-01-13T12:26:14.604Z,97264.15
2019-01-13T12:28:44.584Z,97267.48
2019-01-13T12:31:14.883Z,97267.33
2019-01-13T12:33:44.841Z,97270.78
2019-01-13T12:36:14.975Z,97260.80
2019-01-13T12:38:44.908Z,97261.09
2019-01-13T12:41:14.833Z,97270.35
2019-01-13T12:43:44.799Z,97267.55
2019-01-13T12:46:14.718Z,97259.19
2019-01-13T12:48:44.990Z,97269.43
2019-01-13T12:51:14.986Z,97265.94
2019-01-13T12:53:44.936Z,97253.47
2019-01-13T12:56:15.191Z,97240.22
2019-01-13T12:58:45.120Z,97228.69
2019-01-13T13:01:15.097Z,97221.61
2019-01-13T13:03:45.004Z,97221.69
2019-01-13T13:06:15.174Z,97214.55
2019-01-13T13:08:45.363Z,97208.82
2019-01-13T13:11:15.275Z,97214.01
2019-01-13T13:13:45.172Z,97197.13
2019-01-13T13:16:15.093Z,97196.19
2019-01-13T13:18:45.260Z,97195.20
2019-01-13T13:21:15.666Z,97194.58
2019-01-13T13:23:45.709Z,97188.22
2019-01-13T13:26:15.850Z,97193.48
2019-01-13T13:28:45.998Z,97202.92
2019-01-13T13:31:16.063Z,97190.43
2019-01-13T13:33:46.073Z,97185.20
2019-01-13T13:36:16.132Z,97172.02
2019-01-13T13:38:46.146Z,97164.02
2019-01-13T13:41:16.298Z,97150.84
2019-01-13T13:43:44.707Z,97157.70
2019-01-13T13:46:15.052Z,97155.52
2019-01-13T13:48:45.104Z,97166.20
2019-01-13T13:51:15.780Z,97170.02
2019-01-13T13:53:45.830Z,97164.65
2019-01-13T13:56:15.758Z,97144.19
2019-01-13T13:58:45.980Z,97138.00
2019-01-13T14:01:15.889Z,97137.28
2019-01-13T14:03:46.182Z,97130.02
2019-01-13T14:06:16.441Z,97144.27
2019-01-13T14:08:46.339Z,97143.01
2019-01-13T14:11:16.486Z,97140.48
2019-01-13T14:13:46.643Z,97141.89
2019-01-13T14:16:16.797Z,97138.77
2019-01-13T14:18:47.593Z,97139.42
2019-01-13T14:21:18.052Z,97129.84
2019-01-13T14:23:48.199Z,97115.58
2019-01-13T14:26:18.357Z,97110.36
2019-01-13T14:28:48.246Z,97107.27
2019-01-13T14:31:18.257Z,97095.77
2019-01-13T14:33:52.887Z,97093.23
2019-01-13T14:36:20.887Z,97082.47
2019-01-13T14:38:50.790Z,97078.06
2019-01-13T14:41:20.945Z,97079.20
2019-01-13T14:43:50.844Z,97078.17
2019-01-13T14:46:20.730Z,97070.06
2019-01-13T14:48:50.735Z,97076.02
2019-01-13T14:51:20.632Z,97081.48
2019-01-13T14:53:50.769Z,97077.48
2019-01-13T14:56:20.915Z,97080.67
2019-01-13T14:58:50.821Z,97082.36
2019-01-13T15:01:20.728Z,97085.45
2019-01-13T15:03:50.890Z,97083.38
2019-01-13T15:06:20.777Z,97081.42
2019-01-13T15:08:50.691Z,97075.59
2019-01-13T15:11:20.585Z,97067.92
2019-01-13T15:13:50.510Z,97062.27
2019-01-13T15:20:07.491Z,97046.52
2019-01-13T15:22:37.460Z,97041.40
2019-01-13T15:25:09.962Z,97044.91
2019-01-13T15:27:40.034Z,97050.81
2019-01-13T15:30:20.602Z,97049.18
2019-01-13T15:32:50.505Z,97040.34
2019-01-13T15:35:20.665Z,97043.92
2019-01-13T15:37:50.814Z,97039.11
2019-01-13T15:40:21.133Z,97049.42
2019-01-13T15:42:51.633Z,97063.32
2019-01-13T15:45:22.430Z,97068.47
2019-01-13T15:47:52.601Z,97060.42
2019-01-13T15:50:25.909Z,97058.02
2019-01-13T15:52:55.955Z,97051.63
2019-01-13T15:55:26.120Z,97045.92
2019-01-13T15:57:56.013Z,97036.94
2019-01-13T16:00:29.193Z,97035.97
2019-01-13T16:02:59.356Z,97032.41
2019-01-13T16:16:53.327Z,97001.92
2019-01-13T16:19:23.615Z,96994.11
2019-01-13T16:21:53.703Z,96989.95
2019-01-13T16:24:24.462Z,96985.62
2019-01-13T16:26:54.402Z,96989.66
2019-01-13T16:29:24.314Z,96987.66
2019-01-13T16:31:54.317Z,96983.34
2019-01-13T16:34:24.422Z,96977.34
2019-01-13T16:36:54.355Z,96975.25
2019-01-13T16:39:24.751Z,96978.44
2019-01-13T16:41:54.909Z,96972.72
2019-01-13T16:44:25.120Z,96971.38
2019-01-13T16:46:55.035Z,96969.94
2019-01-13T16:49:25.061Z,96967.03
2019-01-13T16:51:54.962Z,96956.87
2019-01-13T16:54:24.872Z,96956.58
2019-01-13T16:56:54.794Z,96939.28
2019-01-13T16:59:25.456Z,96937.65
2019-01-13T17:01:55.349Z,96928.17
2019-01-13T17:04:29.016Z,96913.83
2019-01-13T17:06:57.456Z,96915.76
2019-01-13T17:09:30.508Z,96907.58
2019-01-13T17:12:00.421Z,96910.05
2019-01-13T17:14:30.334Z,96903.17
2019-01-13T17:17:00.371Z,96897.29
2019-01-13T17:19:30.358Z,96885.71
2019-01-13T17:22:00.533Z,96879.99
2019-01-13T17:24:30.895Z,96875.53
2019-01-13T17:27:00.830Z,96875.53
2019-01-13T17:29:30.746Z,96851.91
2019-01-13T17:32:01.163Z,96853.28
2019-01-13T17:34:35.803Z,96850.65
2019-01-13T17:37:03.021Z,96850.26
2019-01-13T17:39:33.707Z,96851.23
2019-01-13T17:42:03.641Z,96855.48
2019-01-13T17:44:34.655Z,96859.39
2019-01-13T17:47:04.847Z,96843.56
2019-01-13T17:49:34.806Z,96828.67
2019-01-13T17:52:05.083Z,96826.62
2019-01-13T17:54:34.978Z,96830.70
2019-01-13T17:57:05.287Z,96862.90
2019-01-13T17:59:35.271Z,96868.55
2019-01-13T18:02:05.304Z,96853.95
2019-01-13T18:04:35.358Z,96842.69
2019-01-13T18:07:05.284Z,96844.27
2019-01-13T18:09:36.189Z,96840.36
2019-01-13T18:12:06.223Z,96838.52
2019-01-13T18:14:36.226Z,96828.01
2019-01-13T18:17:06.833Z,96832.30
2019-01-13T18:23:28.259Z,96848.89
2019-01-13T18:25:58.225Z,96859.76
2019-01-13T18:28:28.151Z,96872.47
2019-01-13T18:30:58.443Z,96859.16
2019-01-13T18:33:28.447Z,96852.77
2019-01-13T18:35:58.555Z,96835.07
2019-01-13T18:38:28.638Z,96833.03
2019-01-13T18:40:58.592Z,96836.58
2019-01-13T18:43:28.931Z,96832.05
2019-01-13T18:45:59.196Z,96833.88
2019-01-13T18:48:30.171Z,96828.08
2019-01-13T18:51:00.054Z,96812.63
2019-01-13T18:53:30.294Z,96820.11
2019-01-13T18:56:00.432Z,96805.33
2019-01-13T18:58:30.357Z,96798.89
2019-01-13T19:01:01.131Z,96792.58
2019-01-13T19:03:31.450Z,96794.16
2019-01-13T19:06:01.614Z,96785.59
2019-01-13T19:08:31.482Z,96776.73
2019-01-13T19:11:39.985Z,96784.63
2019-01-13T19:14:36.805Z,96776.24
2019-01-13T19:17:12.594Z,96754.75
2019-01-13T19:20:19.761Z,96751.45
2019-01-13T19:22:53.220Z,96752.63
2019-01-13T19:25:34.703Z,96749.89
2019-01-13T19:28:05.055Z,96758.08
2019-01-13T19:30:35.143Z,96752.32
2019-01-13T19:33:05.264Z,96742.80
2019-01-13T19:35:35.712Z,96745.33
2019-01-13T19:38:06.357Z,96748.06
2019-01-13T19:40:36.548Z,96758.95
2019-01-13T19:43:06.586Z,96761.68
2019-01-13T19:45:36.620Z,96766.34
2019-01-13T19:48:06.659Z,96769.66
2019-01-13T19:50:36.749Z,96763.42
2019-01-13T19:53:06.637Z,96771.50
2019-01-13T19:55:37.159Z,96754.28
2019-01-13T19:58:07.321Z,96758.17
2019-01-13T20:00:38.190Z,96765.19
2019-01-13T20:03:08.709Z,96758.95
2019-01-13T20:05:38.741Z,96756.21
2019-01-13T20:08:08.859Z,96759.14
2019-01-13T20:10:39.449Z,96739.19
2019-01-13T20:13:09.451Z,96747.77
2019-01-13T20:15:39.454Z,96754.27
2019-01-13T20:18:09.982Z,96740.16
2019-01-13T20:20:40.239Z,96741.33
2019-01-13T20:23:10.374Z,96728.01
2019-01-13T20:25:40.321Z,96737.25
2019-01-13T20:28:10.201Z,96744.95
2019-01-13T20:30:40.884Z,96724.31
2019-01-13T20:33:10.786Z,96732.59
2019-01-13T20:35:40.700Z,96728.20
2019-01-13T20:38:10.608Z,96740.77
2019-01-13T20:40:41.036Z,96739.59
2019-01-13T20:43:11.045Z,96735.11
2019-01-13T20:45:43.004Z,96733.84
2019-01-13T20:48:13.228Z,96726.05
2019-01-13T20:50:43.127Z,96719.20
2019-01-13T20:53:13.392Z,96713.06
2019-01-13T20:55:43.543Z,96724.95
2019-01-13T20:58:13.791Z,96733.48
2019-01-13T21:00:44.038Z,96723.26
2019-01-13T21:03:14.019Z,96726.19
2019-01-13T21:05:43.970Z,96735.03
2019-01-13T21:08:13.950Z,96740.98
2019-01-13T21:10:43.864Z,96750.12
2019-01-13T21:13:13.937Z,96764.34
2019-01-13T21:15:43.909Z,96761.53
2019-01-13T21:18:13.925Z,96755.16
2019-01-13T21:20:43.938Z,96771.81
2019-01-13T21:23:13.918Z,96788.00
2019-01-13T21:25:44.015Z,96812.84
2019-01-13T21:28:14.028Z,96801.55
2019-01-13T21:30:44.294Z,96799.13
2019-01-13T21:33:14.855Z,96786.47
2019-01-13T21:35:45.002Z,96798.44
2019-01-13T21:38:14.995Z,96775.92
2019-01-13T21:40:44.915Z,96749.38
2019-01-13T21:43:15.109Z,96760.09
2019-01-13T21:45:45.005Z,96766.92
2019-01-13T21:48:17.232Z,96764.58
2019-01-13T21:50:47.449Z,96764.59
2019-01-13T21:53:17.448Z,96767.34
2019-01-13T21:55:47.425Z,96762.83
2019-01-13T21:58:17.335Z,96765.66
2019-01-13T22:00:47.758Z,96766.89
2019-01-13T22:03:17.664Z,96754.02
2019-01-13T22:05:47.866Z,96762.95
2019-01-13T22:08:17.857Z,96770.95
2019-01-13T22:10:47.860Z,96757.48
2019-01-13T22:13:18.111Z,96769.87
2019-01-13T22:15:48.720Z,96761.06
2019-01-13T22:18:18.625Z,96758.47
2019-01-13T22:20:48.882Z,96760.14
2019-01-13T22:23:19.544Z,96761.31
2019-01-13T22:25:50.011Z,96756.95
2019-01-13T22:28:20.167Z,96760.61
2019-01-13T22:30:50.313Z,96754.95
2019-01-13T22:33:20.249Z,96750.38
2019-01-13T22:35:50.381Z,96749.98
2019-01-13T22:38:20.297Z,96744.45
2019-01-13T22:40:50.192Z,96734.91
2019-01-13T22:43:20.134Z,96735.05
2019-01-13T22:45:50.270Z,96734.38
2019-01-13T22:48:20.796Z,96743.45
2019-01-13T22:50:51.005Z,96735.58
2019-01-13T22:53:21.737Z,96741.39
2019-01-13T22:55:52.247Z,96730.60
2019-01-13T22:58:22.276Z,96724.95
2019-01-13T23:01:30.001Z,96725.63
2019-01-13T23:04:16.533Z,96716.27
2019-01-13T23:06:46.912Z,96726.70
2019-01-13T23:09:16.836Z,96733.73
2019-01-13T23:11:46.890Z,96723.11
2019-01-13T23:14:17.488Z,96722.24
2019-01-13T23:16:47.556Z,96726.84
2019-01-13T23:19:17.814Z,96724.00
2019-01-13T23:21:47.722Z,96730.11
2019-01-13T23:24:18.225Z,96733.13
2019-01-13T23:26:48.145Z,96743.36
2019-01-13T23:29:18.062Z,96743.27
2019-01-13T23:31:48.233Z,96757.11
2019-01-13T23:34:18.334Z,96759.55
2019-01-13T23:36:48.778Z,96759.70
2019-01-13T23:39:18.698Z,96781.84
2019-01-13T23:41:48.595Z,96766.81
2019-01-13T23:44:18.797Z,96800.55
2019-01-13T23:48:01.525Z,96855.11
2019-01-13T23:50:31.683Z,96827.08
2019-01-13T23:53:01.907Z,96831.63
2019-01-13T23:55:32.121Z,96827.91
2019-01-13T23:58:02.101Z,96818.97
